createdAt,value
2018-07-13T00:00:39.203Z,15.40
2018-07-13T00:03:08.088Z,15.37
2018-07-13T00:05:37.151Z,15.32
2018-07-13T00:08:06.553Z,15.28
2018-07-13T00:10:35.427Z,15.24
2018-07-13T00:13:04.583Z,15.23
2018-07-13T00:15:33.541Z,15.19
2018-07-13T00:18:02.538Z,15.14
2018-07-13T00:20:31.476Z,15.09
2018-07-13T00:23:00.508Z,15.11
2018-07-13T00:25:29.453Z,15.08
2018-07-13T00:27:58.421Z,15.06
2018-07-13T00:30:27.420Z,15.02
2018-07-13T00:32:56.451Z,14.95
2018-07-13T00:35:25.431Z,14.89
2018-07-13T00:37:54.486Z,14.85
2018-07-13T00:40:23.510Z,14.80
2018-07-13T00:42:52.509Z,14.80
2018-07-13T00:45:21.518Z,14.87
2018-07-13T00:47:50.543Z,14.93
2018-07-13T00:50:19.547Z,14.98
2018-07-13T00:52:48.670Z,14.99
2018-07-13T00:55:17.739Z,15.00
2018-07-13T00:57:46.763Z,15.02
2018-07-13T01:00:15.987Z,15.06
2018-07-13T01:02:45.065Z,15.07
2018-07-13T01:05:13.993Z,15.05
2018-07-13T01:07:43.008Z,15.00
2018-07-13T01:10:12.041Z,14.97
2018-07-13T01:12:41.051Z,14.93
2018-07-13T01:15:10.015Z,14.87
2018-07-13T01:17:38.960Z,14.84
2018-07-13T01:20:07.792Z,14.84
2018-07-13T01:22:36.761Z,14.78
2018-07-13T01:25:05.713Z,14.76
2018-07-13T01:27:34.732Z,14.70
2018-07-13T01:30:03.805Z,14.71
2018-07-13T01:32:32.823Z,14.68
2018-07-13T01:35:02.072Z,14.66
2018-07-13T01:37:31.082Z,14.63
2018-07-13T01:40:01.115Z,14.63
2018-07-13T01:42:30.101Z,14.64
2018-07-13T01:44:59.274Z,14.62
2018-07-13T01:47:28.190Z,14.66
2018-07-13T01:49:57.185Z,14.69
2018-07-13T01:52:26.169Z,14.70
2018-07-13T01:54:55.249Z,14.69
2018-07-13T01:57:24.280Z,14.63
2018-07-13T01:59:53.344Z,14.57
2018-07-13T02:02:22.330Z,14.55
2018-07-13T02:04:51.328Z,14.49
2018-07-13T02:07:20.308Z,14.52
2018-07-13T02:09:50.645Z,14.54
2018-07-13T02:12:19.603Z,14.54
2018-07-13T02:14:48.640Z,14.55
2018-07-13T02:17:17.785Z,14.52
2018-07-13T02:19:47.102Z,14.54
2018-07-13T02:22:16.134Z,14.55
2018-07-13T02:24:45.813Z,14.55
2018-07-13T02:27:15.019Z,14.58
2018-07-13T02:29:44.049Z,14.57
2018-07-13T02:32:13.125Z,14.58
2018-07-13T02:34:42.174Z,14.57
2018-07-13T02:37:11.170Z,14.57
2018-07-13T02:39:40.190Z,14.59
2018-07-13T02:42:09.185Z,14.59
2018-07-13T02:44:38.361Z,14.59
2018-07-13T02:47:07.531Z,14.61
2018-07-13T02:49:36.565Z,14.63
2018-07-13T02:52:05.545Z,14.65
2018-07-13T02:54:34.533Z,14.65
2018-07-13T02:57:03.515Z,14.64
2018-07-13T02:59:32.496Z,14.65
2018-07-13T03:02:01.456Z,14.60
2018-07-13T03:04:30.405Z,14.57
2018-07-13T03:06:59.465Z,14.53
2018-07-13T03:09:29.507Z,14.50
2018-07-13T03:11:58.496Z,14.47
2018-07-13T03:14:27.541Z,14.47
2018-07-13T03:16:56.532Z,14.48
2018-07-13T03:19:25.614Z,14.46
2018-07-13T03:21:54.660Z,14.47
2018-07-13T03:24:23.711Z,14.47
2018-07-13T03:26:52.640Z,14.49
2018-07-13T03:29:21.612Z,14.51
2018-07-13T03:31:50.705Z,14.50
2018-07-13T03:34:19.691Z,14.50
2018-07-13T03:36:48.921Z,14.51
2018-07-13T03:39:18.237Z,14.52
2018-07-13T03:41:47.251Z,14.56
2018-07-13T03:44:16.208Z,14.58
2018-07-13T03:46:45.202Z,14.60
2018-07-13T03:49:14.205Z,14.61
2018-07-13T03:51:43.260Z,14.61
2018-07-13T03:54:12.351Z,14.64
2018-07-13T03:56:41.633Z,14.64
2018-07-13T03:59:10.654Z,14.67
2018-07-13T04:01:39.789Z,14.72
2018-07-13T04:04:08.825Z,14.74
2018-07-13T04:06:37.860Z,14.73
2018-07-13T04:09:09.520Z,14.76
2018-07-13T04:11:38.549Z,14.77
2018-07-13T04:14:07.981Z,14.77
2018-07-13T04:16:37.024Z,14.79
2018-07-13T04:19:06.372Z,14.81
2018-07-13T04:21:35.501Z,14.82
2018-07-13T04:24:04.620Z,14.86
2018-07-13T04:26:33.845Z,14.88
2018-07-13T04:29:02.887Z,14.88
2018-07-13T04:31:31.983Z,14.88
2018-07-13T04:34:01.073Z,14.91
2018-07-13T04:36:30.156Z,14.89
2018-07-13T04:38:59.099Z,14.91
2018-07-13T04:41:28.205Z,14.95
2018-07-13T04:43:57.284Z,15.04
2018-07-13T04:46:26.412Z,15.11
2018-07-13T04:48:55.481Z,15.12
2018-07-13T04:51:24.560Z,15.11
2018-07-13T04:53:53.626Z,15.12
2018-07-13T04:56:22.672Z,15.15
2018-07-13T04:58:51.844Z,15.18
2018-07-13T05:01:20.950Z,15.23
2018-07-13T05:03:50.119Z,15.25
2018-07-13T05:06:19.288Z,15.30
2018-07-13T05:08:48.428Z,15.35
2018-07-13T05:11:17.448Z,15.40
2018-07-13T05:13:46.493Z,15.48
2018-07-13T05:16:15.532Z,15.50
2018-07-13T05:18:44.649Z,15.38
2018-07-13T05:21:13.689Z,15.37
2018-07-13T05:23:42.784Z,15.43
2018-07-13T05:26:11.840Z,15.44
2018-07-13T05:28:41.026Z,15.59
2018-07-13T05:31:10.084Z,15.70
2018-07-13T05:33:39.195Z,15.75
2018-07-13T05:36:08.215Z,15.72
2018-07-13T05:38:37.380Z,15.73
2018-07-13T05:41:06.457Z,15.77
2018-07-13T05:43:35.596Z,15.81
2018-07-13T05:46:04.660Z,15.95
2018-07-13T05:48:34.589Z,16.06
2018-07-13T05:51:03.679Z,16.14
2018-07-13T05:53:32.728Z,16.11
2018-07-13T05:56:01.684Z,16.28
2018-07-13T05:58:30.760Z,16.40
2018-07-13T06:00:59.724Z,16.49
2018-07-13T06:03:28.689Z,16.63
2018-07-13T06:05:57.624Z,16.72
2018-07-13T06:08:27.006Z,16.82
2018-07-13T06:10:56.142Z,16.78
2018-07-13T06:13:25.142Z,16.85
2018-07-13T06:15:53.985Z,16.98
2018-07-13T06:18:22.852Z,16.86
2018-07-13T06:20:52.016Z,16.87
2018-07-13T06:23:20.927Z,16.94
2018-07-13T06:25:49.827Z,17.04
2018-07-13T06:28:18.772Z,16.98
2018-07-13T06:30:47.721Z,16.99
2018-07-13T06:33:16.625Z,17.08
2018-07-13T06:35:45.561Z,17.05
2018-07-13T06:38:14.481Z,17.00
2018-07-13T06:40:43.762Z,17.07
2018-07-13T06:43:12.879Z,17.21
2018-07-13T06:45:42.203Z,17.40
2018-07-13T06:48:11.417Z,17.51
2018-07-13T06:50:40.402Z,17.46
2018-07-13T06:53:09.779Z,17.46
2018-07-13T06:55:38.861Z,18.07
2018-07-13T06:58:18.796Z,18.32
2018-07-13T07:01:09.909Z,18.34
2018-07-13T07:04:49.685Z,18.26
2018-07-13T07:07:25.202Z,18.43
2018-07-13T07:09:55.064Z,18.30
2018-07-13T07:13:29.554Z,18.29
2018-07-13T07:15:58.764Z,18.66
2018-07-13T07:18:27.626Z,18.53
2018-07-13T07:20:57.560Z,18.80
2018-07-13T07:23:26.965Z,18.83
2018-07-13T07:25:56.765Z,18.94
2018-07-13T07:28:26.087Z,18.78
2018-07-13T07:30:55.857Z,18.56
2018-07-13T07:33:24.972Z,18.46
2018-07-13T07:35:53.933Z,18.89
2018-07-13T07:38:22.872Z,19.23
2018-07-13T07:40:51.925Z,19.20
2018-07-13T07:43:21.335Z,19.39
2018-07-13T07:45:50.497Z,20.04
2018-07-13T07:48:19.426Z,20.10
2018-07-13T07:50:48.546Z,19.71
2018-07-13T07:53:17.527Z,20.01
2018-07-13T07:55:46.425Z,20.04
2018-07-13T07:58:15.341Z,20.38
2018-07-13T08:00:44.245Z,20.55
2018-07-13T08:03:13.200Z,20.36
2018-07-13T08:05:42.159Z,20.40
2018-07-13T08:08:11.197Z,20.32
2018-07-13T08:10:40.352Z,20.54
2018-07-13T08:13:09.817Z,20.82
2018-07-13T08:15:38.730Z,20.85
2018-07-13T08:18:07.667Z,20.92
2018-07-13T08:20:38.309Z,21.05
2018-07-13T08:23:08.791Z,21.26
2018-07-13T08:25:39.178Z,21.20
2018-07-13T08:28:08.806Z,21.09
2018-07-13T08:30:42.821Z,21.30
2018-07-13T08:33:11.772Z,21.53
2018-07-13T08:35:40.720Z,21.82
2018-07-13T08:38:09.777Z,21.94
2018-07-13T08:40:38.760Z,22.01
2018-07-13T08:43:07.924Z,21.88
2018-07-13T08:45:36.973Z,21.65
2018-07-13T08:48:06.004Z,21.93
2018-07-13T08:50:35.092Z,22.22
2018-07-13T08:53:04.208Z,22.44
2018-07-13T08:55:33.326Z,22.66
2018-07-13T08:58:02.566Z,22.61
2018-07-13T09:00:31.555Z,22.71
2018-07-13T09:03:00.747Z,22.86
2018-07-13T09:05:29.840Z,22.58
2018-07-13T09:07:59.197Z,22.77
2018-07-13T09:10:28.218Z,22.77
2018-07-13T09:12:57.245Z,22.90
2018-07-13T09:15:26.263Z,22.69
2018-07-13T09:17:55.377Z,22.45
2018-07-13T09:20:24.445Z,22.40
2018-07-13T09:22:53.641Z,22.55
2018-07-13T09:25:22.616Z,22.60
2018-07-13T09:27:51.592Z,22.51
2018-07-13T09:30:20.612Z,22.61
2018-07-13T09:32:49.595Z,22.66
2018-07-13T09:35:18.722Z,22.94
2018-07-13T09:37:47.891Z,22.80
2018-07-13T09:40:16.942Z,23.08
2018-07-13T09:42:46.114Z,23.32
2018-07-13T09:45:15.165Z,23.57
2018-07-13T09:47:44.254Z,23.57
2018-07-13T09:50:13.378Z,23.86
2018-07-13T09:52:42.508Z,24.16
2018-07-13T09:55:11.476Z,24.03
2018-07-13T09:57:40.539Z,24.09
2018-07-13T10:00:12.097Z,24.22
2018-07-13T10:02:41.239Z,24.30
2018-07-13T10:05:10.360Z,24.28
2018-07-13T10:07:39.469Z,24.24
2018-07-13T10:10:08.517Z,23.57
2018-07-13T10:12:37.648Z,23.62
2018-07-13T10:15:06.777Z,23.59
2018-07-13T10:17:35.884Z,23.49
2018-07-13T10:20:05.016Z,23.10
2018-07-13T10:22:34.095Z,23.23
2018-07-13T10:25:04.514Z,23.29
2018-07-13T10:27:36.082Z,23.06
2018-07-13T10:30:06.210Z,23.19
2018-07-13T10:32:35.484Z,23.36
2018-07-13T10:35:06.237Z,23.73
2018-07-13T10:37:35.341Z,23.90
2018-07-13T10:40:04.458Z,23.96
2018-07-13T10:42:33.528Z,23.81
2018-07-13T10:45:02.488Z,23.53
2018-07-13T10:47:31.546Z,23.97
2018-07-13T10:50:00.586Z,24.39
2018-07-13T10:52:29.663Z,24.49
2018-07-13T10:54:58.725Z,24.53
2018-07-13T10:57:27.740Z,24.37
2018-07-13T10:59:56.820Z,24.24
2018-07-13T11:02:25.864Z,24.39
2018-07-13T11:04:54.988Z,24.49
2018-07-13T11:07:24.058Z,24.39
2018-07-13T11:09:53.078Z,24.51
2018-07-13T11:12:22.176Z,24.60
2018-07-13T11:14:51.232Z,24.86
2018-07-13T11:17:20.281Z,24.95
2018-07-13T11:19:49.293Z,24.92
2018-07-13T11:22:18.314Z,25.08
2018-07-13T11:24:47.268Z,25.02
2018-07-13T11:27:16.282Z,25.21
2018-07-13T11:29:45.327Z,25.33
2018-07-13T11:32:14.688Z,25.38
2018-07-13T11:34:43.856Z,25.43
2018-07-13T11:37:13.079Z,25.43
2018-07-13T11:39:41.787Z,25.18
2018-07-13T11:42:11.778Z,25.22
2018-07-13T11:44:40.916Z,25.43
2018-07-13T11:47:10.084Z,25.15
2018-07-13T11:49:39.009Z,25.32
2018-07-13T11:52:07.959Z,25.28
2018-07-13T11:54:36.979Z,25.51
2018-07-13T11:57:06.929Z,25.69
2018-07-13T11:59:35.968Z,25.68
2018-07-13T12:02:05.133Z,25.79
2018-07-13T12:04:34.132Z,25.67
2018-07-13T12:07:03.174Z,25.68
2018-07-13T12:09:32.234Z,25.38
2018-07-13T12:12:01.305Z,25.24
2018-07-13T12:14:30.456Z,25.08
2018-07-13T12:16:59.468Z,25.17
2018-07-13T12:19:28.558Z,25.07
2018-07-13T12:21:57.560Z,25.05
2018-07-13T12:24:26.603Z,25.52
2018-07-13T12:26:55.634Z,25.89
2018-07-13T12:29:24.693Z,25.86
2018-07-13T12:31:53.708Z,25.42
2018-07-13T12:34:22.768Z,25.40
2018-07-13T12:36:51.793Z,25.71
2018-07-13T12:39:20.849Z,26.00
2018-07-13T12:41:49.932Z,25.82
2018-07-13T12:44:19.045Z,25.56
2018-07-13T12:46:48.149Z,25.67
2018-07-13T12:49:17.176Z,25.69
2018-07-13T12:51:46.141Z,25.55
2018-07-13T12:54:15.225Z,25.64
2018-07-13T12:56:44.168Z,25.95
2018-07-13T12:59:13.221Z,26.02
2018-07-13T13:01:42.124Z,25.82
2018-07-13T13:04:11.037Z,25.99
2018-07-13T13:06:39.997Z,26.29
2018-07-13T13:09:08.987Z,26.20
2018-07-13T13:11:38.003Z,26.03
2018-07-13T13:14:06.916Z,25.79
2018-07-13T13:16:35.788Z,26.10
2018-07-13T13:19:04.743Z,26.36
2018-07-13T13:21:33.649Z,26.05
2018-07-13T13:24:02.752Z,25.89
2018-07-13T13:26:31.868Z,25.89
2018-07-13T13:29:00.864Z,26.05
2018-07-13T13:31:29.924Z,26.27
2018-07-13T13:33:59.076Z,26.29
2018-07-13T13:36:28.745Z,26.48
2018-07-13T13:38:57.853Z,26.55
2018-07-13T13:41:26.864Z,26.21
2018-07-13T13:43:56.016Z,26.13
2018-07-13T13:46:25.111Z,25.98
2018-07-13T13:48:54.117Z,25.91
2018-07-13T13:51:23.282Z,25.95
2018-07-13T13:53:52.288Z,26.15
2018-07-13T13:56:21.325Z,26.39
2018-07-13T13:58:50.484Z,26.36
2018-07-13T14:01:19.444Z,26.12
2018-07-13T14:03:48.553Z,26.21
2018-07-13T14:06:17.773Z,26.51
2018-07-13T14:08:46.701Z,26.42
2018-07-13T14:11:15.700Z,26.01
2018-07-13T14:13:44.604Z,26.12
2018-07-13T14:16:13.680Z,26.33
2018-07-13T14:18:42.565Z,26.39
2018-07-13T14:21:11.509Z,26.38
2018-07-13T14:23:40.503Z,26.55
2018-07-13T14:26:09.572Z,26.65
2018-07-13T14:28:38.555Z,26.84
2018-07-13T14:31:07.628Z,26.86
2018-07-13T14:33:36.536Z,26.61
2018-07-13T14:36:05.613Z,26.33
2018-07-13T14:38:34.818Z,26.17
2018-07-13T14:41:03.784Z,26.17
2018-07-13T14:43:32.748Z,26.31
2018-07-13T14:46:01.697Z,26.32
2018-07-13T14:48:30.605Z,26.14
2018-07-13T14:50:59.889Z,26.27
2018-07-13T14:53:28.823Z,26.33
2018-07-13T14:55:57.769Z,26.19
2018-07-13T14:58:26.697Z,26.24
2018-07-13T15:00:55.961Z,26.26
2018-07-13T15:03:24.901Z,26.13
2018-07-13T15:05:53.871Z,26.23
2018-07-13T15:08:23.006Z,26.29
2018-07-13T15:10:52.033Z,26.56
2018-07-13T15:13:21.913Z,26.39
2018-07-13T15:15:50.892Z,26.42
2018-07-13T15:18:20.088Z,26.45
2018-07-13T15:20:49.159Z,26.31
2018-07-13T15:23:18.073Z,26.52
2018-07-13T15:25:47.031Z,26.62
2018-07-13T15:28:15.928Z,26.51
2018-07-13T15:30:44.832Z,26.56
2018-07-13T15:33:13.797Z,26.67
2018-07-13T15:35:42.623Z,26.41
2018-07-13T15:38:11.762Z,26.26
2018-07-13T15:40:40.761Z,26.30
2018-07-13T15:43:09.904Z,26.38
2018-07-13T15:45:38.791Z,26.20
2018-07-13T15:48:07.800Z,25.97
2018-07-13T15:50:36.734Z,25.88
2018-07-13T15:53:05.730Z,25.96
2018-07-13T15:55:39.733Z,25.95
2018-07-13T15:58:09.316Z,25.82
2018-07-13T16:00:38.373Z,25.79
2018-07-13T16:03:07.560Z,25.79
2018-07-13T16:05:36.463Z,25.69
2018-07-13T16:08:05.388Z,25.72
2018-07-13T16:10:34.294Z,25.81
2018-07-13T16:13:03.201Z,25.88
2018-07-13T16:15:32.269Z,25.87
2018-07-13T16:18:01.481Z,25.61
2018-07-13T16:20:30.416Z,25.58
2018-07-13T16:22:59.540Z,25.80
2018-07-13T16:25:28.544Z,25.74
2018-07-13T16:27:57.509Z,25.84
2018-07-13T16:30:26.422Z,25.68
2018-07-13T16:32:55.345Z,25.45
2018-07-13T16:35:24.349Z,25.49
2018-07-13T16:37:53.432Z,25.25
2018-07-13T16:40:22.320Z,25.01
2018-07-13T16:42:51.656Z,25.07
2018-07-13T16:45:20.461Z,25.06
2018-07-13T16:47:49.331Z,25.09
2018-07-13T16:50:18.163Z,25.19
2018-07-13T16:52:47.114Z,25.13
2018-07-13T16:55:16.154Z,25.09
2018-07-13T16:57:45.135Z,24.96
2018-07-13T17:00:14.076Z,24.92
2018-07-13T17:02:43.055Z,24.85
2018-07-13T17:05:12.145Z,24.80
2018-07-13T17:07:41.265Z,24.93
2018-07-13T17:10:10.164Z,24.99
2018-07-13T17:12:38.982Z,25.03
2018-07-13T17:15:08.172Z,24.94
2018-07-13T17:17:37.022Z,24.54
2018-07-13T17:20:05.941Z,24.50
2018-07-13T17:22:34.893Z,24.39
2018-07-13T17:25:05.016Z,24.29
2018-07-13T17:27:34.020Z,24.26
2018-07-13T17:30:02.962Z,24.18
2018-07-13T17:32:31.952Z,23.89
2018-07-13T17:35:01.233Z,23.77
2018-07-13T17:37:30.237Z,23.72
2018-07-13T17:39:59.213Z,23.64
2018-07-13T17:42:28.220Z,23.66
2018-07-13T17:44:57.096Z,23.80
2018-07-13T17:47:26.100Z,24.38
2018-07-13T17:49:55.023Z,24.90
2018-07-13T17:52:23.920Z,24.91
2018-07-13T17:54:52.856Z,24.78
2018-07-13T17:57:21.796Z,24.79
2018-07-13T17:59:50.848Z,24.95
2018-07-13T18:02:19.747Z,24.82
2018-07-13T18:04:48.772Z,24.68
2018-07-13T18:07:17.796Z,24.37
2018-07-13T18:09:46.740Z,24.37
2018-07-13T18:12:15.754Z,24.33
2018-07-13T18:14:44.693Z,24.14
2018-07-13T18:17:13.689Z,24.10
2018-07-13T18:19:42.924Z,23.81
2018-07-13T18:22:11.795Z,23.69
2018-07-13T18:24:40.968Z,23.74
2018-07-13T18:27:09.842Z,23.55
2018-07-13T18:29:38.807Z,23.23
2018-07-13T18:32:07.907Z,22.90
2018-07-13T18:34:36.735Z,22.68
2018-07-13T18:37:05.637Z,22.24
2018-07-13T18:39:34.600Z,21.83
2018-07-13T18:42:03.513Z,21.56
2018-07-13T18:44:32.367Z,21.38
2018-07-13T18:47:01.359Z,21.29
2018-07-13T18:49:30.272Z,21.07
2018-07-13T18:51:59.265Z,20.97
2018-07-13T18:54:28.100Z,20.85
2018-07-13T18:56:57.009Z,20.79
2018-07-13T18:59:25.936Z,20.73
2018-07-13T19:01:54.870Z,20.73
2018-07-13T19:04:23.945Z,20.82
2018-07-13T19:06:52.900Z,20.91
2018-07-13T19:09:22.126Z,21.01
2018-07-13T19:11:51.170Z,20.83
2018-07-13T19:14:20.221Z,20.69
2018-07-13T19:16:49.180Z,20.43
2018-07-13T19:19:18.189Z,20.29
2018-07-13T19:21:47.136Z,20.09
2018-07-13T19:24:16.270Z,19.81
2018-07-13T19:26:45.227Z,19.59
2018-07-13T19:29:14.112Z,19.40
2018-07-13T19:31:43.020Z,19.20
2018-07-13T19:34:12.043Z,19.07
2018-07-13T19:36:41.081Z,19.01
2018-07-13T19:39:09.973Z,18.96
2018-07-13T19:41:38.913Z,18.86
2018-07-13T19:44:07.813Z,18.74
2018-07-13T19:46:36.888Z,18.61
2018-07-13T19:49:05.884Z,18.49
2018-07-13T19:51:34.827Z,18.39
2018-07-13T19:54:03.749Z,18.34
2018-07-13T19:56:32.836Z,18.23
2018-07-13T19:59:01.741Z,18.14
2018-07-13T20:01:30.732Z,18.07
2018-07-13T20:03:59.684Z,18.03
2018-07-13T20:06:28.584Z,17.98
2018-07-13T20:08:57.604Z,17.91
2018-07-13T20:11:26.453Z,17.84
2018-07-13T20:13:55.645Z,17.81
2018-07-13T20:16:24.573Z,17.73
2018-07-13T20:18:53.536Z,17.71
2018-07-13T20:21:22.441Z,17.68
2018-07-13T20:23:51.380Z,17.62
2018-07-13T20:26:20.387Z,17.57
2018-07-13T20:28:49.452Z,17.58
2018-07-13T20:31:18.381Z,17.51
2018-07-13T20:33:47.421Z,17.40
2018-07-13T20:36:16.357Z,17.29
2018-07-13T20:38:45.396Z,17.10
2018-07-13T20:41:14.385Z,16.94
2018-07-13T20:43:43.397Z,16.83
2018-07-13T20:46:12.414Z,16.78
2018-07-13T20:48:41.432Z,16.82
2018-07-13T20:51:10.450Z,16.84
2018-07-13T20:53:39.420Z,16.83
2018-07-13T20:56:08.327Z,16.80
2018-07-13T20:58:37.404Z,16.79
2018-07-13T21:01:06.580Z,16.70
2018-07-13T21:03:35.659Z,16.62
2018-07-13T21:06:04.579Z,16.57
2018-07-13T21:08:33.502Z,16.51
2018-07-13T21:11:02.420Z,16.50
2018-07-13T21:13:31.235Z,16.41
2018-07-13T21:16:00.080Z,16.31
2018-07-13T21:18:28.931Z,16.22
2018-07-13T21:20:57.950Z,16.13
2018-07-13T21:23:27.036Z,16.09
2018-07-13T21:25:55.937Z,16.01
2018-07-13T21:28:24.885Z,15.95
2018-07-13T21:30:53.834Z,15.90
2018-07-13T21:33:22.698Z,15.86
2018-07-13T21:35:51.621Z,15.84
2018-07-13T21:38:20.452Z,15.78
2018-07-13T21:40:49.445Z,15.76
2018-07-13T21:43:18.269Z,15.67
2018-07-13T21:45:47.171Z,15.57
2018-07-13T21:48:16.171Z,15.48
2018-07-13T21:50:45.022Z,15.42
2018-07-13T21:53:13.945Z,15.38
2018-07-13T21:55:43.094Z,15.35
2018-07-13T21:58:12.581Z,15.31
2018-07-13T22:00:41.551Z,15.24
2018-07-13T22:03:10.507Z,15.22
2018-07-13T22:05:39.545Z,15.17
2018-07-13T22:08:08.482Z,15.17
2018-07-13T22:10:37.516Z,15.16
2018-07-13T22:13:06.358Z,15.11
2018-07-13T22:15:36.032Z,15.10
2018-07-13T22:18:04.969Z,15.08
2018-07-13T22:20:33.917Z,15.07
2018-07-13T22:23:02.789Z,15.06
2018-07-13T22:25:31.670Z,15.09
2018-07-13T22:28:00.638Z,15.07
2018-07-13T22:30:29.535Z,15.03
2018-07-13T22:32:58.408Z,15.03
2018-07-13T22:35:27.276Z,14.92
2018-07-13T22:37:56.253Z,14.84
2018-07-13T22:40:25.197Z,14.82
2018-07-13T22:42:54.016Z,14.76
2018-07-13T22:45:23.070Z,14.71
2018-07-13T22:47:52.080Z,14.67
2018-07-13T22:50:20.935Z,14.60
2018-07-13T22:52:49.829Z,14.52
2018-07-13T22:55:18.841Z,14.49
2018-07-13T22:57:47.709Z,14.42
2018-07-13T23:00:16.784Z,14.36
2018-07-13T23:02:45.613Z,14.32
2018-07-13T23:05:14.443Z,14.23
2018-07-13T23:07:43.468Z,14.19
2018-07-13T23:10:12.456Z,14.14
2018-07-13T23:12:41.543Z,14.09
2018-07-13T23:15:10.408Z,14.06
2018-07-13T23:17:39.336Z,14.02
2018-07-13T23:20:08.250Z,13.99
2018-07-13T23:22:37.339Z,13.95
2018-07-13T23:25:06.293Z,13.92
2018-07-13T23:27:35.262Z,13.90
2018-07-13T23:30:04.411Z,13.88
2018-07-13T23:32:33.373Z,13.91
2018-07-13T23:35:02.270Z,13.93
2018-07-13T23:37:31.135Z,13.91
2018-07-13T23:40:00.018Z,13.91
2018-07-13T23:42:29.034Z,13.93
2018-07-13T23:44:57.925Z,13.94
2018-07-13T23:47:26.870Z,13.92
2018-07-13T23:49:55.805Z,13.85
2018-07-13T23:52:24.677Z,13.82
2018-07-13T23:54:53.507Z,13.73
2018-07-13T23:57:22.553Z,13.66
2018-07-13T23:59:51.524Z,13.58
